Terminal Aerodrome Forecast
Issued by NWS

Current Version | Previous Version | Text Only | Print | Product List | Glossary Off
Versions: 1 2 3 4 5 6 7 8 9 10 11 12 13 14 15 16 17 18 19 20 21 22 23

496
FTUS41 KPBZ 011506 AAB
TAFHLG
TAF AMD
KHLG 011506Z 0115/0212 00000KT P6SM BKN015 BKN025
     FM011700 18004KT P6SM VCSH BKN050
     FM020600 20003KT P6SM BKN025=

USA.gov is the U.S. government's official web portal to all federal, state and local government web resources and services.